sensor_id;sensor_type;location;lat;lon;timestamp;temperature;humidity
17571;DHT22;8903;52.220;20.978;2023-03-14T00:00:06;10.00;99.90
17571;DHT22;8903;52.220;20.978;2023-03-14T00:02:36;9.90;99.90
17571;DHT22;8903;52.220;20.978;2023-03-14T00:05:04;9.80;99.90
17571;DHT22;8903;52.220;20.978;2023-03-14T00:07:33;9.80;99.90
17571;DHT22;8903;52.220;20.978;2023-03-14T00:10:05;9.80;99.90
17571;DHT22;8903;52.220;20.978;2023-03-14T00:12:32;9.70;99.90
17571;DHT22;8903;52.220;20.978;2023-03-14T00:14:59;9.70;99.90
17571;DHT22;8903;52.220;20.978;2023-03-14T00:17:29;9.70;99.90
17571;DHT22;8903;52.220;20.978;2023-03-14T00:19:56;9.60;99.90
17571;DHT22;8903;52.220;20.978;2023-03-14T00:22:29;9.50;99.90
17571;DHT22;8903;52.220;20.978;2023-03-14T00:24:56;9.50;99.90
17571;DHT22;8903;52.220;20.978;2023-03-14T00:27:25;9.40;99.90
17571;DHT22;8903;52.220;20.978;2023-03-14T00:29:52;9.40;99.90
17571;DHT22;8903;52.220;20.978;2023-03-14T00:32:19;9.40;99.90
17571;DHT22;8903;52.220;20.978;2023-03-14T00:34:46;9.30;99.90
17571;DHT22;8903;52.220;20.978;2023-03-14T00:37:13;9.30;99.90
17571;DHT22;8903;52.220;20.978;2023-03-14T00:39:41;9.30;99.90
17571;DHT22;8903;52.220;20.978;2023-03-14T00:42:08;9.20;99.90
17571;DHT22;8903;52.220;20.978;2023-03-14T00:44:36;9.20;99.90
17571;DHT22;8903;52.220;20.978;2023-03-14T00:47:06;9.10;99.90
17571;DHT22;8903;52.220;20.978;2023-03-14T00:49:33;9.10;99.90
17571;DHT22;8903;52.220;20.978;2023-03-14T00:52:00;9.10;99.90
17571;DHT22;8903;52.220;20.978;2023-03-14T00:54:27;9.00;99.90
17571;DHT22;8903;52.220;20.978;2023-03-14T00:56:55;8.90;99.90
17571;DHT22;8903;52.220;20.978;2023-03-14T00:59:22;8.90;99.90
17571;DHT22;8903;52.220;20.978;2023-03-14T01:01:51;8.90;99.90
17571;DHT22;8903;52.220;20.978;2023-03-14T01:04:18;8.90;99.90
17571;DHT22;8903;52.220;20.978;2023-03-14T01:06:45;8.80;99.90
17571;DHT22;8903;52.220;20.978;2023-03-14T01:09:12;8.80;99.90
17571;DHT22;8903;52.220;20.978;2023-03-14T01:11:40;8.80;99.90
17571;DHT22;8903;52.220;20.978;2023-03-14T01:14:07;8.70;99.90
17571;DHT22;8903;52.220;20.978;2023-03-14T01:16:35;8.70;99.90
17571;DHT22;8903;52.220;20.978;2023-03-14T01:19:03;8.70;99.90
17571;DHT22;8903;52.220;20.978;2023-03-14T01:21:33;8.60;99.90
17571;DHT22;8903;52.220;20.978;2023-03-14T01:24:02;8.60;99.90
17571;DHT22;8903;52.220;20.978;2023-03-14T01:26:31;8.60;99.90
17571;DHT22;8903;52.220;20.978;2023-03-14T01:28:59;8.60;99.90
17571;DHT22;8903;52.220;20.978;2023-03-14T01:31:28;8.50;99.90
17571;DHT22;8903;52.220;20.978;2023-03-14T01:33:55;8.50;99.90
17571;DHT22;8903;52.220;20.978;2023-03-14T01:36:23;8.40;99.90
17571;DHT22;8903;52.220;20.978;2023-03-14T01:38:51;8.40;99.90
17571;DHT22;8903;52.220;20.978;2023-03-14T01:41:19;8.40;99.90
17571;DHT22;8903;52.220;20.978;2023-03-14T01:43:47;8.30;99.90
17571;DHT22;8903;52.220;20.978;2023-03-14T01:46:37;8.30;99.90
17571;DHT22;8903;52.220;20.978;2023-03-14T01:49:13;8.30;99.90
17571;DHT22;8903;52.220;20.978;2023-03-14T01:51:51;8.20;99.90
17571;DHT22;8903;52.220;20.978;2023-03-14T01:54:26;8.20;99.90
17571;DHT22;8903;52.220;20.978;2023-03-14T01:56:58;8.20;99.90
17571;DHT22;8903;52.220;20.978;2023-03-14T01:59:28;8.20;99.90
17571;DHT22;8903;52.220;20.978;2023-03-14T02:01:56;8.20;99.90
17571;DHT22;8903;52.220;20.978;2023-03-14T02:04:29;8.20;99.90
17571;DHT22;8903;52.220;20.978;2023-03-14T02:07:02;8.10;99.90
17571;DHT22;8903;52.220;20.978;2023-03-14T02:09:35;8.10;99.90
17571;DHT22;8903;52.220;20.978;2023-03-14T02:12:03;8.00;99.90
17571;DHT22;8903;52.220;20.978;2023-03-14T02:14:45;8.00;99.90
17571;DHT22;8903;52.220;20.978;2023-03-14T02:17:37;7.90;99.90
17571;DHT22;8903;52.220;20.978;2023-03-14T02:20:25;7.90;99.90
17571;DHT22;8903;52.220;20.978;2023-03-14T02:22:58;7.80;99.90
17571;DHT22;8903;52.220;20.978;2023-03-14T02:25:35;7.80;99.90
17571;DHT22;8903;52.220;20.978;2023-03-14T02:28:07;7.80;99.90
17571;DHT22;8903;52.220;20.978;2023-03-14T02:30:35;7.80;99.90
17571;DHT22;8903;52.220;20.978;2023-03-14T02:33:06;7.70;99.90
17571;DHT22;8903;52.220;20.978;2023-03-14T02:35:36;7.70;99.90
17571;DHT22;8903;52.220;20.978;2023-03-14T02:38:09;7.70;99.90
17571;DHT22;8903;52.220;20.978;2023-03-14T02:40:41;7.80;99.90
17571;DHT22;8903;52.220;20.978;2023-03-14T02:43:09;7.70;99.90
17571;DHT22;8903;52.220;20.978;2023-03-14T02:45:41;7.70;99.90
17571;DHT22;8903;52.220;20.978;2023-03-14T02:48:15;7.60;99.90
17571;DHT22;8903;52.220;20.978;2023-03-14T02:50:44;7.60;99.90
17571;DHT22;8903;52.220;20.978;2023-03-14T02:53:14;7.60;99.90
17571;DHT22;8903;52.220;20.978;2023-03-14T02:55:46;7.60;99.90
17571;DHT22;8903;52.220;20.978;2023-03-14T02:58:16;7.60;99.90
17571;DHT22;8903;52.220;20.978;2023-03-14T03:00:46;7.50;99.90
17571;DHT22;8903;52.220;20.978;2023-03-14T03:03:14;7.50;99.90
17571;DHT22;8903;52.220;20.978;2023-03-14T03:05:41;7.60;99.90
17571;DHT22;8903;52.220;20.978;2023-03-14T03:08:10;7.50;99.90
17571;DHT22;8903;52.220;20.978;2023-03-14T03:10:37;7.60;99.90
17571;DHT22;8903;52.220;20.978;2023-03-14T03:13:06;7.60;99.90
17571;DHT22;8903;52.220;20.978;2023-03-14T03:15:34;7.60;99.90
17571;DHT22;8903;52.220;20.978;2023-03-14T03:18:01;7.60;99.90
17571;DHT22;8903;52.220;20.978;2023-03-14T03:20:29;7.60;99.90
17571;DHT22;8903;52.220;20.978;2023-03-14T03:22:56;7.60;99.90
17571;DHT22;8903;52.220;20.978;2023-03-14T03:25:23;7.50;99.90
17571;DHT22;8903;52.220;20.978;2023-03-14T03:27:50;7.50;99.90
17571;DHT22;8903;52.220;20.978;2023-03-14T03:30:18;7.50;99.90
17571;DHT22;8903;52.220;20.978;2023-03-14T03:32:48;7.40;99.90
17571;DHT22;8903;52.220;20.978;2023-03-14T03:35:15;7.40;99.90
17571;DHT22;8903;52.220;20.978;2023-03-14T03:37:42;7.50;99.90
17571;DHT22;8903;52.220;20.978;2023-03-14T03:40:10;7.50;99.90
17571;DHT22;8903;52.220;20.978;2023-03-14T03:42:37;7.40;99.90
17571;DHT22;8903;52.220;20.978;2023-03-14T03:45:08;7.40;99.90
17571;DHT22;8903;52.220;20.978;2023-03-14T03:47:41;7.30;99.90
17571;DHT22;8903;52.220;20.978;2023-03-14T03:50:11;7.30;99.90
17571;DHT22;8903;52.220;20.978;2023-03-14T03:52:38;7.30;99.90
17571;DHT22;8903;52.220;20.978;2023-03-14T03:55:05;7.30;99.90
17571;DHT22;8903;52.220;20.978;2023-03-14T03:57:33;7.30;99.90
17571;DHT22;8903;52.220;20.978;2023-03-14T03:59:59;7.30;99.90
17571;DHT22;8903;52.220;20.978;2023-03-14T04:02:27;7.30;99.90
17571;DHT22;8903;52.220;20.978;2023-03-14T04:04:55;7.30;99.90
17571;DHT22;8903;52.220;20.978;2023-03-14T04:07:24;7.20;99.90
17571;DHT22;8903;52.220;20.978;2023-03-14T04:09:51;7.20;99.90
17571;DHT22;8903;52.220;20.978;2023-03-14T04:12:37;7.20;99.90
17571;DHT22;8903;52.220;20.978;2023-03-14T04:15:09;7.20;99.90
17571;DHT22;8903;52.220;20.978;2023-03-14T04:17:40;7.20;99.90
17571;DHT22;8903;52.220;20.978;2023-03-14T04:20:08;7.10;99.90
17571;DHT22;8903;52.220;20.978;2023-03-14T04:22:38;7.10;99.90
17571;DHT22;8903;52.220;20.978;2023-03-14T04:25:07;7.10;99.90
17571;DHT22;8903;52.220;20.978;2023-03-14T04:27:39;7.00;99.90
17571;DHT22;8903;52.220;20.978;2023-03-14T04:30:15;7.00;99.90
17571;DHT22;8903;52.220;20.978;2023-03-14T04:32:50;7.00;99.90
17571;DHT22;8903;52.220;20.978;2023-03-14T04:35:19;7.00;99.90
17571;DHT22;8903;52.220;20.978;2023-03-14T04:37:48;7.10;99.90
17571;DHT22;8903;52.220;20.978;2023-03-14T04:40:19;7.00;99.90
17571;DHT22;8903;52.220;20.978;2023-03-14T04:42:47;7.00;99.90
17571;DHT22;8903;52.220;20.978;2023-03-14T04:45:15;7.00;99.90
17571;DHT22;8903;52.220;20.978;2023-03-14T04:47:43;7.00;99.90
17571;DHT22;8903;52.220;20.978;2023-03-14T04:50:14;7.10;99.90
17571;DHT22;8903;52.220;20.978;2023-03-14T04:52:41;7.00;99.90
17571;DHT22;8903;52.220;20.978;2023-03-14T04:55:10;7.10;99.90
17571;DHT22;8903;52.220;20.978;2023-03-14T04:57:37;7.20;99.90
17571;DHT22;8903;52.220;20.978;2023-03-14T05:00:09;7.20;99.90
17571;DHT22;8903;52.220;20.978;2023-03-14T05:02:55;7.20;99.90
17571;DHT22;8903;52.220;20.978;2023-03-14T05:05:42;7.30;99.90
17571;DHT22;8903;52.220;20.978;2023-03-14T05:08:31;7.30;99.90
17571;DHT22;8903;52.220;20.978;2023-03-14T05:11:13;7.40;99.90
17571;DHT22;8903;52.220;20.978;2023-03-14T05:13:51;7.40;99.90
17571;DHT22;8903;52.220;20.978;2023-03-14T05:16:41;7.40;99.90
17571;DHT22;8903;52.220;20.978;2023-03-14T05:19:28;7.40;99.90
17571;DHT22;8903;52.220;20.978;2023-03-14T05:22:12;7.50;99.90
17571;DHT22;8903;52.220;20.978;2023-03-14T05:24:51;7.50;99.90
17571;DHT22;8903;52.220;20.978;2023-03-14T05:27:43;7.60;99.90
17571;DHT22;8903;52.220;20.978;2023-03-14T05:30:46;7.70;99.90
17571;DHT22;8903;52.220;20.978;2023-03-14T05:33:41;7.70;99.90
17571;DHT22;8903;52.220;20.978;2023-03-14T05:36:29;7.70;99.90
17571;DHT22;8903;52.220;20.978;2023-03-14T05:39:09;7.70;99.90
17571;DHT22;8903;52.220;20.978;2023-03-14T05:41:36;7.60;99.90
17571;DHT22;8903;52.220;20.978;2023-03-14T05:44:37;7.70;99.90
17571;DHT22;8903;52.220;20.978;2023-03-14T05:47:17;7.70;99.90
17571;DHT22;8903;52.220;20.978;2023-03-14T05:49:59;7.70;99.90
17571;DHT22;8903;52.220;20.978;2023-03-14T05:52:35;7.80;99.90
17571;DHT22;8903;52.220;20.978;2023-03-14T05:55:20;7.90;99.90
17571;DHT22;8903;52.220;20.978;2023-03-14T05:58:06;7.90;99.90
17571;DHT22;8903;52.220;20.978;2023-03-14T06:00:54;8.10;99.90
17571;DHT22;8903;52.220;20.978;2023-03-14T06:03:39;8.20;99.90
17571;DHT22;8903;52.220;20.978;2023-03-14T06:06:08;8.40;99.90
17571;DHT22;8903;52.220;20.978;2023-03-14T06:08:35;8.50;99.90
17571;DHT22;8903;52.220;20.978;2023-03-14T06:11:04;8.60;99.90
17571;DHT22;8903;52.220;20.978;2023-03-14T06:13:31;8.70;99.90
17571;DHT22;8903;52.220;20.978;2023-03-14T06:15:59;8.80;99.90
17571;DHT22;8903;52.220;20.978;2023-03-14T06:18:26;8.80;99.90
17571;DHT22;8903;52.220;20.978;2023-03-14T06:20:55;8.90;99.90
17571;DHT22;8903;52.220;20.978;2023-03-14T06:23:25;8.90;99.90
17571;DHT22;8903;52.220;20.978;2023-03-14T06:25:54;8.90;99.90
17571;DHT22;8903;52.220;20.978;2023-03-14T06:28:23;8.90;99.90
17571;DHT22;8903;52.220;20.978;2023-03-14T06:30:50;9.00;99.90
17571;DHT22;8903;52.220;20.978;2023-03-14T06:33:19;9.00;99.90
17571;DHT22;8903;52.220;20.978;2023-03-14T06:35:46;9.00;99.90
17571;DHT22;8903;52.220;20.978;2023-03-14T06:38:13;9.10;99.90
17571;DHT22;8903;52.220;20.978;2023-03-14T06:40:40;9.10;99.90
17571;DHT22;8903;52.220;20.978;2023-03-14T06:43:12;9.20;99.90
17571;DHT22;8903;52.220;20.978;2023-03-14T06:45:41;9.20;99.90
17571;DHT22;8903;52.220;20.978;2023-03-14T06:48:08;9.30;99.90
17571;DHT22;8903;52.220;20.978;2023-03-14T06:50:41;9.30;99.90
17571;DHT22;8903;52.220;20.978;2023-03-14T06:53:09;9.40;99.90
17571;DHT22;8903;52.220;20.978;2023-03-14T06:55:39;9.60;99.90
17571;DHT22;8903;52.220;20.978;2023-03-14T06:58:07;9.80;99.90
17571;DHT22;8903;52.220;20.978;2023-03-14T07:00:39;9.90;99.90
17571;DHT22;8903;52.220;20.978;2023-03-14T07:03:06;10.20;99.90
17571;DHT22;8903;52.220;20.978;2023-03-14T07:05:38;10.30;99.90
17571;DHT22;8903;52.220;20.978;2023-03-14T07:08:08;10.50;99.90
17571;DHT22;8903;52.220;20.978;2023-03-14T07:10:35;10.70;99.90
17571;DHT22;8903;52.220;20.978;2023-03-14T07:13:02;10.80;99.90
17571;DHT22;8903;52.220;20.978;2023-03-14T07:15:34;10.80;99.90
17571;DHT22;8903;52.220;20.978;2023-03-14T07:18:05;10.90;99.90
17571;DHT22;8903;52.220;20.978;2023-03-14T07:20:32;10.90;99.90
17571;DHT22;8903;52.220;20.978;2023-03-14T07:23:01;10.90;99.90
17571;DHT22;8903;52.220;20.978;2023-03-14T07:25:41;10.90;99.90
17571;DHT22;8903;52.220;20.978;2023-03-14T07:28:08;10.90;99.90
17571;DHT22;8903;52.220;20.978;2023-03-14T07:30:37;10.90;99.90
17571;DHT22;8903;52.220;20.978;2023-03-14T07:33:13;11.00;99.90
17571;DHT22;8903;52.220;20.978;2023-03-14T07:35:40;11.20;99.90
17571;DHT22;8903;52.220;20.978;2023-03-14T07:38:08;11.40;99.90
17571;DHT22;8903;52.220;20.978;2023-03-14T07:40:43;11.50;99.90
17571;DHT22;8903;52.220;20.978;2023-03-14T07:43:10;11.60;99.90
17571;DHT22;8903;52.220;20.978;2023-03-14T07:45:44;11.70;99.90
17571;DHT22;8903;52.220;20.978;2023-03-14T07:48:12;11.80;99.90
17571;DHT22;8903;52.220;20.978;2023-03-14T07:50:39;11.90;99.90
17571;DHT22;8903;52.220;20.978;2023-03-14T07:53:05;12.00;99.90
17571;DHT22;8903;52.220;20.978;2023-03-14T07:55:33;12.10;99.90
17571;DHT22;8903;52.220;20.978;2023-03-14T07:58:01;12.30;99.90
17571;DHT22;8903;52.220;20.978;2023-03-14T08:00:28;12.40;99.90
17571;DHT22;8903;52.220;20.978;2023-03-14T08:02:55;12.50;99.90
17571;DHT22;8903;52.220;20.978;2023-03-14T08:05:22;12.60;99.90
17571;DHT22;8903;52.220;20.978;2023-03-14T08:07:49;12.70;99.90
17571;DHT22;8903;52.220;20.978;2023-03-14T08:10:16;12.70;99.90
17571;DHT22;8903;52.220;20.978;2023-03-14T08:12:48;12.90;99.90
17571;DHT22;8903;52.220;20.978;2023-03-14T08:15:16;13.00;99.90
17571;DHT22;8903;52.220;20.978;2023-03-14T08:17:43;13.10;99.90
17571;DHT22;8903;52.220;20.978;2023-03-14T08:20:11;13.10;99.90
17571;DHT22;8903;52.220;20.978;2023-03-14T08:22:38;13.00;99.90
17571;DHT22;8903;52.220;20.978;2023-03-14T08:25:06;13.10;99.90
17571;DHT22;8903;52.220;20.978;2023-03-14T08:27:33;13.10;99.90
17571;DHT22;8903;52.220;20.978;2023-03-14T08:30:01;13.20;99.90
17571;DHT22;8903;52.220;20.978;2023-03-14T08:32:30;13.30;99.90
17571;DHT22;8903;52.220;20.978;2023-03-14T08:34:57;13.40;99.90
17571;DHT22;8903;52.220;20.978;2023-03-14T08:37:24;13.50;99.90
17571;DHT22;8903;52.220;20.978;2023-03-14T08:39:51;13.60;99.90
17571;DHT22;8903;52.220;20.978;2023-03-14T08:42:18;13.70;99.90
17571;DHT22;8903;52.220;20.978;2023-03-14T08:44:45;13.70;99.90
17571;DHT22;8903;52.220;20.978;2023-03-14T08:47:12;13.80;99.90
17571;DHT22;8903;52.220;20.978;2023-03-14T08:49:41;14.00;99.90
17571;DHT22;8903;52.220;20.978;2023-03-14T08:52:08;14.20;99.90
17571;DHT22;8903;52.220;20.978;2023-03-14T08:54:35;14.50;99.90
17571;DHT22;8903;52.220;20.978;2023-03-14T08:57:02;14.60;99.90
17571;DHT22;8903;52.220;20.978;2023-03-14T08:59:29;14.90;99.90
17571;DHT22;8903;52.220;20.978;2023-03-14T09:01:56;15.10;99.90
17571;DHT22;8903;52.220;20.978;2023-03-14T09:04:23;15.20;99.90
17571;DHT22;8903;52.220;20.978;2023-03-14T09:06:52;15.20;99.90
17571;DHT22;8903;52.220;20.978;2023-03-14T09:09:19;15.30;99.90
17571;DHT22;8903;52.220;20.978;2023-03-14T09:11:46;15.30;99.90
17571;DHT22;8903;52.220;20.978;2023-03-14T09:14:13;15.40;99.90
17571;DHT22;8903;52.220;20.978;2023-03-14T09:16:40;15.30;99.90
17571;DHT22;8903;52.220;20.978;2023-03-14T09:19:07;15.30;99.90
17571;DHT22;8903;52.220;20.978;2023-03-14T09:21:34;15.50;99.90
17571;DHT22;8903;52.220;20.978;2023-03-14T09:24:03;15.60;99.90
17571;DHT22;8903;52.220;20.978;2023-03-14T09:26:30;15.60;99.90
17571;DHT22;8903;52.220;20.978;2023-03-14T09:28:57;15.70;99.90
17571;DHT22;8903;52.220;20.978;2023-03-14T09:31:24;15.70;99.90
17571;DHT22;8903;52.220;20.978;2023-03-14T09:33:52;15.90;99.90
17571;DHT22;8903;52.220;20.978;2023-03-14T09:36:19;15.90;99.90
17571;DHT22;8903;52.220;20.978;2023-03-14T09:38:46;16.00;99.90
17571;DHT22;8903;52.220;20.978;2023-03-14T09:41:18;16.00;99.90
17571;DHT22;8903;52.220;20.978;2023-03-14T09:43:48;16.00;99.90
17571;DHT22;8903;52.220;20.978;2023-03-14T09:46:18;16.00;99.90
17571;DHT22;8903;52.220;20.978;2023-03-14T09:48:45;16.10;99.90
17571;DHT22;8903;52.220;20.978;2023-03-14T09:51:15;16.00;99.90
17571;DHT22;8903;52.220;20.978;2023-03-14T09:53:44;15.90;99.90
17571;DHT22;8903;52.220;20.978;2023-03-14T09:56:14;15.90;99.90
17571;DHT22;8903;52.220;20.978;2023-03-14T09:58:47;15.60;99.90
17571;DHT22;8903;52.220;20.978;2023-03-14T10:01:16;15.80;99.90
17571;DHT22;8903;52.220;20.978;2023-03-14T10:03:45;15.90;99.90
17571;DHT22;8903;52.220;20.978;2023-03-14T10:06:15;16.20;99.90
17571;DHT22;8903;52.220;20.978;2023-03-14T10:08:43;16.40;99.90
17571;DHT22;8903;52.220;20.978;2023-03-14T10:11:14;16.40;99.90
17571;DHT22;8903;52.220;20.978;2023-03-14T10:14:01;16.40;99.90
17571;DHT22;8903;52.220;20.978;2023-03-14T10:16:31;16.20;99.90
17571;DHT22;8903;52.220;20.978;2023-03-14T10:19:03;16.00;99.90
17571;DHT22;8903;52.220;20.978;2023-03-14T10:21:36;15.90;99.90
17571;DHT22;8903;52.220;20.978;2023-03-14T10:24:21;15.80;99.90
17571;DHT22;8903;52.220;20.978;2023-03-14T10:26:49;15.80;99.90
17571;DHT22;8903;52.220;20.978;2023-03-14T10:29:18;15.80;99.90
17571;DHT22;8903;52.220;20.978;2023-03-14T10:31:52;15.80;99.90
17571;DHT22;8903;52.220;20.978;2023-03-14T10:34:23;15.80;99.90
17571;DHT22;8903;52.220;20.978;2023-03-14T10:36:56;15.80;99.90
17571;DHT22;8903;52.220;20.978;2023-03-14T10:39:37;15.60;99.90
17571;DHT22;8903;52.220;20.978;2023-03-14T10:42:15;15.60;99.90
17571;DHT22;8903;52.220;20.978;2023-03-14T10:44:46;15.70;99.90
17571;DHT22;8903;52.220;20.978;2023-03-14T10:47:19;15.80;99.90
17571;DHT22;8903;52.220;20.978;2023-03-14T10:49:47;15.80;99.90
17571;DHT22;8903;52.220;20.978;2023-03-14T10:52:19;15.80;99.90
17571;DHT22;8903;52.220;20.978;2023-03-14T10:54:54;15.90;99.90
17571;DHT22;8903;52.220;20.978;2023-03-14T10:57:21;16.00;99.90
17571;DHT22;8903;52.220;20.978;2023-03-14T10:59:51;15.90;99.90
17571;DHT22;8903;52.220;20.978;2023-03-14T11:02:38;15.80;99.90
17571;DHT22;8903;52.220;20.978;2023-03-14T11:05:15;15.80;99.90
17571;DHT22;8903;52.220;20.978;2023-03-14T11:07:45;15.80;99.90
17571;DHT22;8903;52.220;20.978;2023-03-14T11:10:19;15.80;99.90
17571;DHT22;8903;52.220;20.978;2023-03-14T11:12:59;15.80;99.90
17571;DHT22;8903;52.220;20.978;2023-03-14T11:15:36;15.60;99.90
17571;DHT22;8903;52.220;20.978;2023-03-14T11:18:36;15.50;99.90
17571;DHT22;8903;52.220;20.978;2023-03-14T11:21:13;15.50;99.90
17571;DHT22;8903;52.220;20.978;2023-03-14T11:23:46;15.40;99.90
17571;DHT22;8903;52.220;20.978;2023-03-14T11:26:25;15.40;99.90
17571;DHT22;8903;52.220;20.978;2023-03-14T11:28:57;15.20;99.90
17571;DHT22;8903;52.220;20.978;2023-03-14T11:31:28;15.10;99.90
17571;DHT22;8903;52.220;20.978;2023-03-14T11:33:59;15.00;99.90
17571;DHT22;8903;52.220;20.978;2023-03-14T11:36:31;14.90;99.90
17571;DHT22;8903;52.220;20.978;2023-03-14T11:38:59;14.90;99.90
17571;DHT22;8903;52.220;20.978;2023-03-14T11:41:31;15.00;99.90
17571;DHT22;8903;52.220;20.978;2023-03-14T11:44:01;14.90;99.90
17571;DHT22;8903;52.220;20.978;2023-03-14T11:46:34;14.90;99.90
17571;DHT22;8903;52.220;20.978;2023-03-14T11:49:06;15.00;99.90
17571;DHT22;8903;52.220;20.978;2023-03-14T11:51:39;15.00;99.90
17571;DHT22;8903;52.220;20.978;2023-03-14T11:54:16;15.10;99.90
17571;DHT22;8903;52.220;20.978;2023-03-14T11:56:48;15.30;99.90
17571;DHT22;8903;52.220;20.978;2023-03-14T11:59:22;15.50;99.90
17571;DHT22;8903;52.220;20.978;2023-03-14T12:01:55;15.60;99.90
17571;DHT22;8903;52.220;20.978;2023-03-14T12:04:51;15.50;99.90
17571;DHT22;8903;52.220;20.978;2023-03-14T12:07:23;15.50;99.90
17571;DHT22;8903;52.220;20.978;2023-03-14T12:09:54;15.50;99.90
17571;DHT22;8903;52.220;20.978;2023-03-14T12:12:23;15.70;99.90
17571;DHT22;8903;52.220;20.978;2023-03-14T12:14:55;16.10;99.90
17571;DHT22;8903;52.220;20.978;2023-03-14T12:17:26;16.40;99.90
17571;DHT22;8903;52.220;20.978;2023-03-14T12:20:03;16.30;99.90
17571;DHT22;8903;52.220;20.978;2023-03-14T12:22:34;16.20;99.90
17571;DHT22;8903;52.220;20.978;2023-03-14T12:25:13;15.90;99.90
17571;DHT22;8903;52.220;20.978;2023-03-14T12:30:33;15.50;99.90
17571;DHT22;8903;52.220;20.978;2023-03-14T12:33:31;15.20;99.90
17571;DHT22;8903;52.220;20.978;2023-03-14T12:39:13;14.90;99.90
17571;DHT22;8903;52.220;20.978;2023-03-14T12:41:51;14.80;99.90
17571;DHT22;8903;52.220;20.978;2023-03-14T12:44:43;14.70;99.90
17571;DHT22;8903;52.220;20.978;2023-03-14T12:50:22;14.50;99.90
17571;DHT22;8903;52.220;20.978;2023-03-14T12:53:06;14.40;99.90
17571;DHT22;8903;52.220;20.978;2023-03-14T12:55:38;14.30;99.90
17571;DHT22;8903;52.220;20.978;2023-03-14T12:58:10;14.10;99.90
17571;DHT22;8903;52.220;20.978;2023-03-14T13:00:40;13.80;99.90
17571;DHT22;8903;52.220;20.978;2023-03-14T13:03:18;13.60;99.90
17571;DHT22;8903;52.220;20.978;2023-03-14T13:05:58;13.20;99.90
17571;DHT22;8903;52.220;20.978;2023-03-14T13:08:37;12.70;99.90
17571;DHT22;8903;52.220;20.978;2023-03-14T13:11:08;12.40;99.90
17571;DHT22;8903;52.220;20.978;2023-03-14T13:13:40;12.20;99.90
17571;DHT22;8903;52.220;20.978;2023-03-14T13:16:14;12.10;99.90
17571;DHT22;8903;52.220;20.978;2023-03-14T13:18:43;11.90;99.90
17571;DHT22;8903;52.220;20.978;2023-03-14T13:21:15;11.90;99.90
17571;DHT22;8903;52.220;20.978;2023-03-14T13:23:55;11.80;99.90
17571;DHT22;8903;52.220;20.978;2023-03-14T13:26:25;11.60;99.90
17571;DHT22;8903;52.220;20.978;2023-03-14T13:28:54;11.50;99.90
17571;DHT22;8903;52.220;20.978;2023-03-14T13:31:23;11.40;99.90
17571;DHT22;8903;52.220;20.978;2023-03-14T13:34:00;11.40;99.90
17571;DHT22;8903;52.220;20.978;2023-03-14T13:36:29;11.40;99.90
17571;DHT22;8903;52.220;20.978;2023-03-14T13:38:57;11.50;99.90
17571;DHT22;8903;52.220;20.978;2023-03-14T13:41:24;11.50;99.90
17571;DHT22;8903;52.220;20.978;2023-03-14T13:43:52;11.40;99.90
17571;DHT22;8903;52.220;20.978;2023-03-14T13:46:25;11.30;99.90
17571;DHT22;8903;52.220;20.978;2023-03-14T13:48:55;11.30;99.90
17571;DHT22;8903;52.220;20.978;2023-03-14T13:51:23;11.20;99.90
17571;DHT22;8903;52.220;20.978;2023-03-14T13:53:53;11.20;99.90
17571;DHT22;8903;52.220;20.978;2023-03-14T13:56:22;11.20;99.90
17571;DHT22;8903;52.220;20.978;2023-03-14T13:58:50;11.20;99.90
17571;DHT22;8903;52.220;20.978;2023-03-14T14:01:19;11.20;99.90
17571;DHT22;8903;52.220;20.978;2023-03-14T14:03:49;11.30;99.90
17571;DHT22;8903;52.220;20.978;2023-03-14T14:06:25;11.30;99.90
17571;DHT22;8903;52.220;20.978;2023-03-14T14:08:55;11.40;99.90
17571;DHT22;8903;52.220;20.978;2023-03-14T14:11:32;11.40;99.90
17571;DHT22;8903;52.220;20.978;2023-03-14T14:14:02;11.40;99.90
17571;DHT22;8903;52.220;20.978;2023-03-14T14:16:31;11.50;99.90
17571;DHT22;8903;52.220;20.978;2023-03-14T14:18:59;11.50;99.90
17571;DHT22;8903;52.220;20.978;2023-03-14T14:21:27;11.50;99.90
17571;DHT22;8903;52.220;20.978;2023-03-14T14:23:55;11.50;99.90
17571;DHT22;8903;52.220;20.978;2023-03-14T14:26:23;11.40;99.90
17571;DHT22;8903;52.220;20.978;2023-03-14T14:28:59;11.30;99.90
17571;DHT22;8903;52.220;20.978;2023-03-14T14:31:27;11.30;99.90
17571;DHT22;8903;52.220;20.978;2023-03-14T14:33:55;11.30;99.90
17571;DHT22;8903;52.220;20.978;2023-03-14T14:36:27;11.30;99.90
17571;DHT22;8903;52.220;20.978;2023-03-14T14:38:59;11.30;99.90
17571;DHT22;8903;52.220;20.978;2023-03-14T14:41:29;11.30;99.90
17571;DHT22;8903;52.220;20.978;2023-03-14T14:43:57;11.20;99.90
17571;DHT22;8903;52.220;20.978;2023-03-14T14:46:26;11.20;99.90
17571;DHT22;8903;52.220;20.978;2023-03-14T14:48:56;11.20;99.90
17571;DHT22;8903;52.220;20.978;2023-03-14T14:51:26;11.20;99.90
17571;DHT22;8903;52.220;20.978;2023-03-14T14:54:05;11.20;99.90
17571;DHT22;8903;52.220;20.978;2023-03-14T14:56:37;11.20;99.90
17571;DHT22;8903;52.220;20.978;2023-03-14T14:59:06;11.20;99.90
17571;DHT22;8903;52.220;20.978;2023-03-14T15:01:44;11.30;99.90
17571;DHT22;8903;52.220;20.978;2023-03-14T15:04:14;11.30;99.90
17571;DHT22;8903;52.220;20.978;2023-03-14T15:06:44;11.20;99.90
17571;DHT22;8903;52.220;20.978;2023-03-14T15:09:13;11.20;99.90
17571;DHT22;8903;52.220;20.978;2023-03-14T15:11:42;11.20;99.90
17571;DHT22;8903;52.220;20.978;2023-03-14T15:14:09;11.20;99.90
17571;DHT22;8903;52.220;20.978;2023-03-14T15:16:36;11.20;99.90
17571;DHT22;8903;52.220;20.978;2023-03-14T15:19:11;11.20;99.90
17571;DHT22;8903;52.220;20.978;2023-03-14T15:21:39;11.10;99.90
17571;DHT22;8903;52.220;20.978;2023-03-14T15:24:09;11.10;99.90
17571;DHT22;8903;52.220;20.978;2023-03-14T15:26:37;11.10;99.90
17571;DHT22;8903;52.220;20.978;2023-03-14T15:29:04;11.00;99.90
17571;DHT22;8903;52.220;20.978;2023-03-14T15:31:34;11.00;99.90
17571;DHT22;8903;52.220;20.978;2023-03-14T15:34:02;11.00;99.90
17571;DHT22;8903;52.220;20.978;2023-03-14T15:36:30;10.90;99.90
17571;DHT22;8903;52.220;20.978;2023-03-14T15:38:59;10.90;99.90
17571;DHT22;8903;52.220;20.978;2023-03-14T15:41:27;10.90;99.90
17571;DHT22;8903;52.220;20.978;2023-03-14T15:43:56;10.80;99.90
17571;DHT22;8903;52.220;20.978;2023-03-14T15:46:23;10.80;99.90
17571;DHT22;8903;52.220;20.978;2023-03-14T15:48:51;10.80;99.90
17571;DHT22;8903;52.220;20.978;2023-03-14T15:51:19;10.70;99.90
17571;DHT22;8903;52.220;20.978;2023-03-14T15:53:46;10.70;99.90
17571;DHT22;8903;52.220;20.978;2023-03-14T15:56:15;10.70;99.90
17571;DHT22;8903;52.220;20.978;2023-03-14T15:58:42;10.70;99.90
17571;DHT22;8903;52.220;20.978;2023-03-14T16:01:14;10.70;99.90
17571;DHT22;8903;52.220;20.978;2023-03-14T16:03:42;10.70;99.90
17571;DHT22;8903;52.220;20.978;2023-03-14T16:06:11;10.70;99.90
17571;DHT22;8903;52.220;20.978;2023-03-14T16:08:41;10.70;99.90
17571;DHT22;8903;52.220;20.978;2023-03-14T16:11:10;10.70;99.90